Map

Track Data

SID SEASON NUMBER BASIN SUBBASIN NAME ISO_TIME NATURE LAT LON WMO_WIND WMO_PRES WMO_AGENCY TRACK_TYPE DIST2LAND LANDFALL IFLAG USA_AGENCY USA_ATCF_ID USA_LAT USA_LON USA_RECORD USA_STATUS USA_WIND USA_PRES USA_SSHS USA_R34_NE USA_R34_SE USA_R34_SW USA_R34_NW USA_R50_NE USA_R50_SE USA_R50_SW USA_R50_NW USA_R64_NE USA_R64_SE USA_R64_SW USA_R64_NW USA_POCI USA_ROCI USA_RMW USA_EYE TOKYO_LAT TOKYO_LON TOKYO_GRADE TOKYO_WIND TOKYO_PRES TOKYO_R50_DIR TOKYO_R50_LONG TOKYO_R50_SHORT TOKYO_R30_DIR TOKYO_R30_LONG TOKYO_R30_SHORT TOKYO_LAND CMA_LAT CMA_LON CMA_CAT CMA_WIND CMA_PRES HKO_LAT HKO_LON HKO_CAT HKO_WIND HKO_PRES NEWDELHI_LAT NEWDELHI_LON NEWDELHI_GRADE NEWDELHI_WIND NEWDELHI_PRES NEWDELHI_CI NEWDELHI_DP NEWDELHI_POCI REUNION_LAT REUNION_LON REUNION_TYPE REUNION_WIND REUNION_PRES REUNION_TNUM REUNION_CI REUNION_RMW REUNION_R34_NE REUNION_R34_SE REUNION_R34_SW REUNION_R34_NW REUNION_R50_NE REUNION_R50_SE REUNION_R50_SW REUNION_R50_NW REUNION_R64_NE REUNION_R64_SE REUNION_R64_SW REUNION_R64_NW BOM_LAT BOM_LON BOM_TYPE BOM_WIND BOM_PRES BOM_TNUM BOM_CI BOM_RMW BOM_R34_NE BOM_R34_SE BOM_R34_SW BOM_R34_NW BOM_R50_NE BOM_R50_SE BOM_R50_SW BOM_R50_NW BOM_R64_NE BOM_R64_SE BOM_R64_SW BOM_R64_NW BOM_ROCI BOM_POCI BOM_EYE BOM_POS_METHOD BOM_PRES_METHOD NADI_LAT NADI_LON NADI_CAT NADI_WIND NADI_PRES WELLINGTON_LAT WELLINGTON_LON WELLINGTON_WIND WELLINGTON_PRES DS824_LAT DS824_LON DS824_STAGE DS824_WIND DS824_PRES TD9636_LAT TD9636_LON TD9636_STAGE TD9636_WIND TD9636_PRES TD9635_LAT TD9635_LON TD9635_WIND TD9635_PRES TD9635_ROCI NEUMANN_LAT NEUMANN_LON NEUMANN_CLASS NEUMANN_WIND NEUMANN_PRES MLC_LAT MLC_LON MLC_CLASS MLC_WIND MLC_PRES USA_GUST BOM_GUST BOM_GUST_PER REUNION_GUST REUNION_GUST_PER USA_SEAHGT USA_SEARAD_NE USA_SEARAD_SE USA_SEARAD_SW USA_SEARAD_NW STORM_SPEED STORM_DIR
1956214N19088 1956 65 NI BB NOT_NAMED 1956-07-31 18:00:00 TS 19.2000 87.9000 main 175 168 O________O____ jtwc_io IO091956 19.2000 87.9000 -1 19.2000 87.9000 TC 2 343
1956214N19088 1956 65 NI BB NOT_NAMED 1956-07-31 21:00:00 TS 19.3000 87.8500 main 168 152 P________P____ IO091956 19.3000 87.8500 -1 19.3000 87.8500 TC 2 333
1956214N19088 1956 65 NI BB NOT_NAMED 1956-08-01 00:00:00 TS 19.4000 87.8000 main 152 145 O________O____ jtwc_io IO091956 19.4000 87.8000 -1 19.4000 87.8000 TC 25 2 335
1956214N19088 1956 65 NI BB NOT_NAMED 1956-08-01 03:00:00 TS 19.5000 87.7555 main 145 130 P________PO___ IO091956 19.5000 87.7500 -1 19.5000 87.7500 TC 25 19.5000 87.8000 1 2 336
1956214N19088 1956 65 NI BB NOT_NAMED 1956-08-01 06:00:00 TS 19.6013 87.7022 main 130 115 O________OP___ jtwc_io IO091956 19.6000 87.7000 -1 19.6000 87.7000 TC 25 19.6063 87.7111 1 2 333
1956214N19088 1956 65 NI BB NOT_NAMED 1956-08-01 09:00:00 TS 19.7027 87.6439 main 115 109 P________PP___ IO091956 19.7000 87.6500 -1 19.7000 87.6500 TC 25 19.7101 87.6276 1 2 331
1956214N19088 1956 65 NI BB NOT_NAMED 1956-08-01 12:00:00 TS 19.8029 87.5851 main 109 94 O________OP___ jtwc_io IO091956 19.8000 87.6000 -1 19.8000 87.6000 TC 25 19.8088 87.5554 1 2 333
1956214N19088 1956 65 NI BB NOT_NAMED 1956-08-01 15:00:00 TS 19.9050 87.5333 main 94 89 P________PO___ IO091956 19.9075 87.5500 -1 19.9075 87.5500 TC 25 19.9000 87.5000 1 2 336
1956214N19088 1956 65 NI BB NOT_NAMED 1956-08-01 18:00:00 TS 19.9941 87.4882 main 89 80 O________OP___ jtwc_io IO091956 20.0000 87.5000 -1 20.0000 87.5000 TC 25 19.9822 87.4646 1 2 329
1956214N19088 1956 65 NI BB NOT_NAMED 1956-08-01 21:00:00 TS 20.0525 87.4425 main 76 76 P________PP___ IO091956 20.0500 87.4425 -1 20.0500 87.4425 TC 25 20.0575 87.4424 1 1 324
1956214N19088 1956 65 NI BB NOT_NAMED 1956-08-02 00:00:00 TS 20.1097 87.4080 main 76 68 O________OP___ jtwc_io IO091956 20.1000 87.4000 -1 20.1000 87.4000 TC 25 20.1290 87.4240 1 2 344
1956214N19088 1956 65 NI BB NOT_NAMED 1956-08-02 03:00:00 TS 20.2000 87.4000 main 68 61 P________PO___ IO091956 20.2000 87.4000 -1 20.2000 87.4000 TC 25 20.2000 87.4000 1 2 355
1956214N19088 1956 65 NI BB NOT_NAMED 1956-08-02 06:00:00 TS 20.2903 87.3857 main 61 53 O________OP___ jtwc_io IO091956 20.3000 87.4000 -1 20.3000 87.4000 TC 25 20.2709 87.3572 1 2 339
1956214N19088 1956 65 NI BB NOT_NAMED 1956-08-02 09:00:00 TS 20.3475 87.3408 main 53 45 P________PP___ IO091956 20.3500 87.3575 -1 20.3500 87.3575 TC 25 20.3425 87.3075 1 2 319
1956214N19088 1956 65 NI BB NOT_NAMED 1956-08-02 12:00:00 TS 20.4059 87.2847 main 45 30 O________OP___ jtwc_io IO091956 20.4000 87.3000 -1 20.4000 87.3000 TC 25 20.4178 87.2540 1 2 326
1956214N19088 1956 65 NI BB NOT_NAMED 1956-08-02 15:00:00 TS 20.4950 87.2333 main 30 23 P________PO___ IO091956 20.4925 87.2500 -1 20.4925 87.2500 TC 25 20.5000 87.2000 1 2 338
1956214N19088 1956 65 NI BB NOT_NAMED 1956-08-02 18:00:00 TS 20.5893 87.2048 main 23 20 O________OP___ jtwc_io IO091956 20.6000 87.2000 -1 20.6000 87.2000 TC 25 20.5680 87.2143 1 2 349
1956214N19088 1956 65 NI BB NOT_NAMED 1956-08-02 21:00:00 TS 20.6772 87.1829 main 20 10 P________PP___ IO091956 20.6925 87.1649 -1 20.6925 87.1649 TC 25 20.6467 87.2188 1 2 338
1956214N19088 1956 65 NI BB NOT_NAMED 1956-08-03 00:00:00 TS 20.7840 87.1213 main 10 10 O________OP___ jtwc_io IO091956 20.8000 87.1000 -1 20.8000 87.1000 TC 25 20.7521 87.1640 1 3 327
1956214N19088 1956 65 NI BB NOT_NAMED 1956-08-03 03:00:00 TS 20.9182 87.0115 main 10 0 P________PO___ IO091956 20.9273 87.0172 -1 20.9273 87.0172 TC 25 20.9000 87.0000 1 5 314
1956214N19088 1956 65 NI BB NOT_NAMED 1956-08-03 06:00:00 TS 21.1008 86.7685 main 0 0 O________OP___ jtwc_io IO091956 21.1000 86.8000 -1 21.1000 86.8000 TC 25 21.1025 86.7055 1 8 304
1956214N19088 1956 65 NI BB NOT_NAMED 1956-08-03 09:00:00 TS 21.3340 86.3432 main 0 0 P________PP___ IO091956 21.3276 86.3675 -1 21.3276 86.3675 TC 25 21.3469 86.2946 1 10 299
1956214N19088 1956 65 NI BB NOT_NAMED 1956-08-03 12:00:00 TS 21.6059 85.7955 main 0 0 O________OP___ jtwc_io IO091956 21.6000 85.8000 -1 21.6000 85.8000 TC 25 21.6178 85.7864 1 12 298
1956214N19088 1956 65 NI BB NOT_NAMED 1956-08-03 15:00:00 TS 21.8998 85.2199 main 0 0 P________PO___ IO091956 21.8998 85.2299 -1 21.8998 85.2299 TC 25 21.9000 85.2000 1 13 298
1956214N19088 1956 65 NI BB NOT_NAMED 1956-08-03 18:00:00 TS 22.1916 84.6053 main 0 0 O________OP___ jtwc_io IO091956 22.2000 84.6000 -1 22.2000 84.6000 TC 25 22.1749 84.6160 1 13 295
1956214N19088 1956 65 NI BB NOT_NAMED 1956-08-03 21:00:00 TS 22.4566 83.9436 main 0 0 P________PP___ IO091956 22.4571 83.9371 -1 22.4571 83.9371 TC 25 22.4556 83.9566 1 14 292
1956214N19088 1956 65 NI BB NOT_NAMED 1956-08-04 00:00:00 TS 22.7112 83.2063 main 0 0 O________OP___ jtwc_io IO091956 22.7000 83.2000 -1 22.7000 83.2000 TC 25 22.7335 83.2188 1 15 290
1956214N19088 1956 65 NI BB NOT_NAMED 1956-08-04 03:00:00 TS 22.9663 82.3964 main 0 0 P________PO___ IO091956 22.9495 82.3946 -1 22.9495 82.3946 TC 25 23.0000 82.4000 1 17 288
1956214N19088 1956 65 NI BB NOT_NAMED 1956-08-04 06:00:00 TS 23.2162 81.4946 main 0 0 O________OP___ jtwc_io IO091956 23.2000 81.5000 -1 23.2000 81.5000 TC 25 23.2487 81.4837 1 18 286
1956214N19088 1956 65 NI BB NOT_NAMED 1956-08-04 09:00:00 TS 23.4655 80.5082 main 0 0 P________PP___ IO091956 23.4574 80.5149 -1 23.4574 80.5149 TC 25 23.4817 80.4949 1 19 285
1956214N19088 1956 65 NI BB NOT_NAMED 1956-08-04 12:00:00 TS 23.6995 79.4945 main 0 0 O________OP___ jtwc_io IO091956 23.7000 79.5000 -1 23.7000 79.5000 TC 25 23.6985 79.4835 1 19 284
1956214N19088 1956 65 NI BB NOT_NAMED 1956-08-04 15:00:00 TS 23.9046 78.5230 main 0 0 P________PO___ IO091956 23.9069 78.5346 -1 23.9069 78.5346 TC 25 23.9000 78.5000 1 18 283
1956214N19088 1956 65 NI AS NOT_NAMED 1956-08-04 18:00:00 TS 24.1030 77.5872 main 0 0 O________OP___ jtwc_io IO091956 24.1000 77.6000 -1 24.1000 77.6000 TC 25 24.1090 77.5614 1 18 283
1956214N19088 1956 65 NI AS NOT_NAMED 1956-08-04 21:00:00 TS 24.3106 76.6586 main 0 0 P________PP___ IO091956 24.3149 76.6552 -1 24.3149 76.6552 TC 25 24.3020 76.6655 1 17 283
1956214N19088 1956 65 NI AS NOT_NAMED 1956-08-05 00:00:00 TS 24.4896 75.8122 main 0 0 O________OP___ jtwc_io IO091956 24.5000 75.8000 -1 24.5000 75.8000 TC 25 24.4689 75.8367 1 15 282
1956214N19088 1956 65 NI AS NOT_NAMED 1956-08-05 03:00:00 TS 24.6146 75.0931 main 0 0 P________PO___ IO091956 24.6219 75.0897 -1 24.6219 75.0897 TC 25 24.6000 75.1000 1 12 280
1956214N19088 1956 65 NI AS NOT_NAMED 1956-08-05 06:00:00 TS 24.6958 74.4921 main 0 0 O________OP___ jtwc_io IO091956 24.7000 74.5000 -1 24.7000 74.5000 TC 25 24.6875 74.4764 1 10 278
1956214N19088 1956 65 NI AS NOT_NAMED 1956-08-05 09:00:00 TS 24.7570 73.9662 main 0 0 P________PP___ IO091956 24.7646 73.9774 -1 24.7646 73.9774 TC 25 24.7419 73.9437 1 9 276
1956214N19088 1956 65 NI AS NOT_NAMED 1956-08-05 12:00:00 TS 24.7918 73.4881 main 0 0 O________OP___ jtwc_io IO091956 24.8000 73.5000 -1 24.8000 73.5000 TC 25 24.7755 73.4642 1 9 273
1956214N19088 1956 65 NI AS NOT_NAMED 1956-08-05 15:00:00 TS 24.7999 72.9999 main 0 0 P________PO___ IO091956 24.7998 72.9998 -1 24.7998 72.9998 TC 25 24.8000 73.0000 1 9 271
1956214N19088 1956 65 NI AS NOT_NAMED 1956-08-05 18:00:00 TS 24.8098 72.5081 main 0 0 O________OP___ jtwc_io IO091956 24.8000 72.5000 -1 24.8000 72.5000 TC 25 24.8245 72.5202 1 9 273
1956214N19088 1956 65 NI AS NOT_NAMED 1956-08-05 21:00:00 TS 24.8430 72.0100 main 0 0 P________PP___ IO091956 24.8378 72.0002 -1 24.8378 72.0002 TC 25 24.8500 72.0231 1 9 275
1956214N19088 1956 65 NI AS NOT_NAMED 1956-08-06 00:00:00 TS 24.8877 71.5072 main 0 0 O________OP___ jtwc_io IO091956 24.9000 71.5000 -1 24.9000 71.5000 TC 25 24.8755 71.5145 1 9 274
1956214N19088 1956 65 NI AS NOT_NAMED 1956-08-06 03:00:00 NR 24.9000 71.0000 main 0 __________O___ IO091956 -1 TC 24.9000 71.0000 1 9 272

About IBTrACS Database

This database is a web-friendly format of International Best Track Archive for Climate Stewardship (IBTrACS), a global best track data archive curated by NOAA dating back to 1842.

Updated: 2021-10-21